createdAt,value
2023-04-23T00:01:19.506Z,9.18
2023-04-23T00:03:46.985Z,7.55
2023-04-23T00:06:14.721Z,7.28
2023-04-23T00:08:42.239Z,7.60
2023-04-23T00:11:10.681Z,8.35
2023-04-23T00:13:38.108Z,7.15
2023-04-23T00:16:05.934Z,8.25
2023-04-23T00:18:32.892Z,7.50
2023-04-23T00:20:59.879Z,7.47
2023-04-23T00:23:26.985Z,7.93
2023-04-23T00:25:54.143Z,7.40
2023-04-23T00:28:22.374Z,7.05
2023-04-23T00:30:49.462Z,8.02
2023-04-23T00:33:16.438Z,7.85
2023-04-23T00:35:43.527Z,6.62
2023-04-23T00:38:10.514Z,6.53
2023-04-23T00:40:37.699Z,6.15
2023-04-23T00:43:05.069Z,6.62
2023-04-23T00:45:32.120Z,6.35
2023-04-23T00:47:59.667Z,7.20
2023-04-23T00:50:26.792Z,7.95
2023-04-23T00:52:53.755Z,6.28
2023-04-23T00:55:21.522Z,6.85
2023-04-23T00:57:49.004Z,6.65
2023-04-23T01:00:16.309Z,6.95
2023-04-23T01:02:44.639Z,7.55
2023-04-23T01:05:12.323Z,8.57
2023-04-23T01:07:39.493Z,8.50
2023-04-23T01:10:07.299Z,7.05
2023-04-23T01:12:35.018Z,7.37
2023-04-23T01:15:02.950Z,6.65
2023-04-23T01:17:30.162Z,7.40
2023-04-23T01:19:57.235Z,8.02
2023-04-23T01:22:24.728Z,7.75
2023-04-23T01:24:52.463Z,6.47
2023-04-23T01:27:20.427Z,8.02
2023-04-23T01:29:48.264Z,6.78
2023-04-23T01:32:16.045Z,6.97
2023-04-23T01:34:43.757Z,7.80
2023-04-23T01:37:11.624Z,7.40
2023-04-23T01:39:38.576Z,6.62
2023-04-23T01:42:07.462Z,8.65
2023-04-23T01:44:34.748Z,6.65
2023-04-23T01:47:01.637Z,7.53
2023-04-23T01:49:28.614Z,6.65
2023-04-23T01:51:55.601Z,8.00
2023-04-23T01:54:22.582Z,7.43
2023-04-23T01:56:49.784Z,6.32
2023-04-23T01:59:16.713Z,8.18
2023-04-23T02:01:47.739Z,7.43
2023-04-23T02:04:16.085Z,7.62
2023-04-23T02:06:46.182Z,7.87
2023-04-23T02:09:13.479Z,8.43
2023-04-23T02:11:40.726Z,7.35
2023-04-23T02:14:08.769Z,6.95
2023-04-23T02:16:36.738Z,6.30
2023-04-23T02:19:04.127Z,7.18
2023-04-23T02:21:31.754Z,7.65
2023-04-23T02:23:58.688Z,7.47
2023-04-23T02:26:25.686Z,7.43
2023-04-23T02:28:52.697Z,7.10
2023-04-23T02:31:21.082Z,7.57
2023-04-23T02:33:48.144Z,7.12
2023-04-23T02:36:16.364Z,8.13
2023-04-23T02:38:45.065Z,9.65
2023-04-23T02:41:12.568Z,7.93
2023-04-23T02:43:39.494Z,7.45
2023-04-23T02:46:09.695Z,8.02
2023-04-23T02:48:41.284Z,7.72
2023-04-23T02:51:11.167Z,7.95
2023-04-23T02:53:38.216Z,6.55
2023-04-23T02:56:05.701Z,9.95
2023-04-23T02:58:32.655Z,9.35
2023-04-23T03:01:00.293Z,8.55
2023-04-23T03:03:32.160Z,7.68
2023-04-23T03:06:01.045Z,8.02
2023-04-23T03:08:28.686Z,7.28
2023-04-23T03:10:55.747Z,7.57
2023-04-23T03:13:22.654Z,8.18
2023-04-23T03:15:56.009Z,6.57
2023-04-23T03:18:22.938Z,7.60
2023-04-23T03:20:49.861Z,7.82
2023-04-23T03:23:16.946Z,8.55
2023-04-23T03:25:43.885Z,7.35
2023-04-23T03:28:10.824Z,6.30
2023-04-23T03:30:37.805Z,7.78
2023-04-23T03:33:04.866Z,7.50
2023-04-23T03:35:31.827Z,7.50
2023-04-23T03:37:58.808Z,6.30
2023-04-23T03:40:25.904Z,8.15
2023-04-23T03:42:52.923Z,6.30
2023-04-23T03:45:19.857Z,7.50
2023-04-23T03:47:46.760Z,7.07
2023-04-23T03:50:13.775Z,7.10
2023-04-23T03:52:40.892Z,7.47
2023-04-23T03:55:08.340Z,7.87
2023-04-23T03:57:36.478Z,7.93
2023-04-23T04:00:05.189Z,8.18
2023-04-23T04:02:32.552Z,7.62
2023-04-23T04:04:59.630Z,8.00
2023-04-23T04:07:27.304Z,8.60
2023-04-23T04:09:54.197Z,7.22
2023-04-23T04:12:21.090Z,6.85
2023-04-23T04:14:48.059Z,8.20
2023-04-23T04:17:16.354Z,7.60
2023-04-23T04:19:43.711Z,7.75
2023-04-23T04:22:11.191Z,7.62
2023-04-23T04:24:38.329Z,9.20
2023-04-23T04:27:06.292Z,8.07
2023-04-23T04:29:33.721Z,7.68
2023-04-23T04:32:01.740Z,9.18
2023-04-23T04:34:29.129Z,7.87
2023-04-23T04:36:56.110Z,8.48
2023-04-23T04:39:23.059Z,7.53
2023-04-23T04:41:50.177Z,7.32
2023-04-23T04:44:17.613Z,6.72
2023-04-23T04:46:45.253Z,8.98
2023-04-23T04:49:13.115Z,7.72
2023-04-23T04:51:41.525Z,7.70
2023-04-23T04:54:08.734Z,7.87
2023-04-23T04:56:35.707Z,8.30
2023-04-23T04:59:03.293Z,7.32
2023-04-23T05:01:31.252Z,7.40
2023-04-23T05:03:58.663Z,7.65
2023-04-23T05:06:25.936Z,6.35
2023-04-23T05:08:52.920Z,6.57
2023-04-23T05:11:21.210Z,7.65
2023-04-23T05:13:48.945Z,7.93
2023-04-23T05:16:15.984Z,7.10
2023-04-23T05:18:43.445Z,7.80
2023-04-23T05:21:10.590Z,8.25
2023-04-23T05:23:37.634Z,7.97
2023-04-23T05:26:04.918Z,5.87
2023-04-23T05:28:31.971Z,6.47
2023-04-23T05:30:59.256Z,6.53
2023-04-23T05:33:30.648Z,6.45
2023-04-23T05:36:00.341Z,5.70
2023-04-23T05:38:27.474Z,6.47
2023-04-23T05:40:54.401Z,6.05
2023-04-23T05:43:21.337Z,6.30
2023-04-23T05:45:48.423Z,6.70
2023-04-23T05:48:15.368Z,8.70
2023-04-23T05:50:42.407Z,7.80
2023-04-23T05:53:09.455Z,8.40
2023-04-23T05:55:36.476Z,8.05
2023-04-23T05:58:03.442Z,8.45
2023-04-23T06:00:30.753Z,9.50
2023-04-23T06:02:57.886Z,8.07
2023-04-23T06:05:25.041Z,8.70
2023-04-23T06:07:52.646Z,8.15
2023-04-23T06:10:19.676Z,7.85
2023-04-23T06:12:46.604Z,7.45
2023-04-23T06:15:13.573Z,7.87
2023-04-23T06:17:41.389Z,7.07
2023-04-23T06:20:10.945Z,6.85
2023-04-23T06:25:05.786Z,5.57
2023-04-23T06:27:33.998Z,5.50
2023-04-23T06:30:01.037Z,5.57
2023-04-23T06:32:28.048Z,6.00
2023-04-23T06:35:01.472Z,5.57
2023-04-23T06:37:31.069Z,5.45
2023-04-23T06:39:59.548Z,6.10
2023-04-23T06:42:26.573Z,5.95
2023-04-23T06:44:53.615Z,4.40
2023-04-23T06:47:20.658Z,5.70
2023-04-23T06:49:47.571Z,4.97
2023-04-23T06:52:14.594Z,4.37
2023-04-23T06:54:41.779Z,5.15
2023-04-23T06:57:08.980Z,4.93
2023-04-23T06:59:35.973Z,5.15
2023-04-23T07:02:02.904Z,5.62
2023-04-23T07:04:30.206Z,5.00
2023-04-23T07:06:57.558Z,5.68
2023-04-23T07:09:24.583Z,6.10
2023-04-23T07:11:51.606Z,5.28
2023-04-23T07:14:18.625Z,5.43
2023-04-23T07:16:45.684Z,5.55
2023-04-23T07:19:12.620Z,5.28
2023-04-23T07:21:39.513Z,6.15
2023-04-23T07:24:09.732Z,4.57
2023-04-23T07:26:37.244Z,4.45
2023-04-23T07:29:06.910Z,5.03
2023-04-23T07:31:34.465Z,5.28
2023-04-23T07:34:01.594Z,5.00
2023-04-23T07:36:28.906Z,4.37
2023-04-23T07:38:55.956Z,4.43
2023-04-23T07:41:23.064Z,4.65
2023-04-23T07:43:50.266Z,5.25
2023-04-23T07:46:17.462Z,5.22
2023-04-23T07:48:44.601Z,5.32
2023-04-23T07:51:11.668Z,4.75
2023-04-23T07:53:38.778Z,4.82
2023-04-23T07:56:05.883Z,4.75
2023-04-23T07:58:33.560Z,4.55
2023-04-23T08:01:00.524Z,4.82
2023-04-23T08:03:28.919Z,4.32
2023-04-23T08:05:57.089Z,4.57
2023-04-23T08:08:24.045Z,4.15
2023-04-23T08:10:51.023Z,4.72
2023-04-23T08:13:18.061Z,4.78
2023-04-23T08:15:45.041Z,4.40
2023-04-23T08:18:12.124Z,4.45
2023-04-23T08:20:39.067Z,4.87
2023-04-23T08:23:06.481Z,4.50
2023-04-23T08:25:33.630Z,4.43
2023-04-23T08:28:00.660Z,4.30
2023-04-23T08:30:27.582Z,4.53
2023-04-23T08:32:54.575Z,4.95
2023-04-23T08:35:22.445Z,4.47
2023-04-23T08:37:49.383Z,4.82
2023-04-23T08:40:17.279Z,4.50
2023-04-23T08:42:51.364Z,4.15
2023-04-23T08:45:19.507Z,5.28
2023-04-23T08:47:46.588Z,4.30
2023-04-23T08:50:17.938Z,4.12
2023-04-23T08:52:52.902Z,4.47
2023-04-23T08:55:21.457Z,4.75
2023-04-23T08:57:49.891Z,4.43
2023-04-23T09:00:19.536Z,4.75
2023-04-23T09:02:48.673Z,4.10
2023-04-23T09:07:43.388Z,5.05
2023-04-23T09:10:13.694Z,4.05
2023-04-23T09:12:43.681Z,5.07
2023-04-23T09:15:12.150Z,4.50
2023-04-23T09:17:41.375Z,4.55
2023-04-23T09:20:12.416Z,4.43
2023-04-23T09:22:51.018Z,4.43
2023-04-23T09:25:20.942Z,3.90
2023-04-23T09:27:49.732Z,4.30
2023-04-23T09:30:17.586Z,4.20
2023-04-23T09:32:49.748Z,4.70
2023-04-23T09:35:20.280Z,4.15
2023-04-23T09:37:53.207Z,3.87
2023-04-23T09:40:22.838Z,4.80
2023-04-23T09:42:54.816Z,3.95
2023-04-23T09:45:22.106Z,4.35
2023-04-23T09:47:54.924Z,3.90
2023-04-23T09:50:39.577Z,3.72
2023-04-23T09:53:08.385Z,4.18
2023-04-23T09:55:39.185Z,4.22
2023-04-23T09:58:15.736Z,3.97
2023-04-23T10:00:43.634Z,4.03
2023-04-23T10:03:12.399Z,3.67
2023-04-23T10:08:14.682Z,4.10
2023-04-23T10:10:54.960Z,3.80
2023-04-23T10:13:28.386Z,3.53
2023-04-23T10:15:59.073Z,3.00
2023-04-23T10:18:33.241Z,3.17
2023-04-23T10:21:02.926Z,4.12
2023-04-23T10:23:33.493Z,3.30
2023-04-23T10:26:01.787Z,2.75
2023-04-23T10:28:32.232Z,3.20
2023-04-23T10:31:00.045Z,3.78
2023-04-23T10:33:31.893Z,3.60
2023-04-23T10:36:00.753Z,3.58
2023-04-23T10:38:28.575Z,3.80
2023-04-23T10:40:59.047Z,3.58
2023-04-23T10:43:26.521Z,3.83
2023-04-23T10:45:54.092Z,3.62
2023-04-23T10:48:21.798Z,3.92
2023-04-23T10:51:17.577Z,3.10
2023-04-23T10:53:46.133Z,3.00
2023-04-23T10:56:13.049Z,3.00
2023-04-23T10:58:52.461Z,3.00
2023-04-23T11:03:48.853Z,3.40
2023-04-23T11:06:40.030Z,2.65
2023-04-23T11:09:29.855Z,3.45
2023-04-23T11:11:59.942Z,3.12
2023-04-23T11:14:50.617Z,3.37
2023-04-23T11:17:19.640Z,3.60
2023-04-23T11:20:07.236Z,3.22
2023-04-23T11:22:43.925Z,3.25
2023-04-23T11:25:12.876Z,3.12
2023-04-23T11:27:44.712Z,3.42
2023-04-23T11:30:27.224Z,3.05
2023-04-23T11:32:56.851Z,3.30
2023-04-23T11:35:29.689Z,3.20
2023-04-23T11:37:57.223Z,2.85
2023-04-23T11:40:24.537Z,3.33
2023-04-23T11:42:55.200Z,3.53
2023-04-23T11:45:29.565Z,3.28
2023-04-23T11:48:01.223Z,3.28
2023-04-23T11:50:33.606Z,3.45
2023-04-23T11:53:09.179Z,3.22
2023-04-23T11:55:36.697Z,3.00
2023-04-23T11:58:04.109Z,3.37
2023-04-23T12:00:31.018Z,2.75
2023-04-23T12:03:01.559Z,3.10
2023-04-23T12:05:34.032Z,2.80
2023-04-23T12:08:20.598Z,3.17
2023-04-23T12:10:55.069Z,3.53
2023-04-23T12:13:24.397Z,3.10
2023-04-23T12:18:21.349Z,3.00
2023-04-23T12:20:48.345Z,3.30
2023-04-23T12:23:15.497Z,3.10
2023-04-23T12:25:42.696Z,2.80
2023-04-23T12:28:09.630Z,3.50
2023-04-23T12:30:44.208Z,2.92
2023-04-23T12:33:12.279Z,3.35
2023-04-23T12:35:51.887Z,3.08
2023-04-23T12:38:24.013Z,3.10
2023-04-23T12:40:52.347Z,3.05
2023-04-23T12:43:19.334Z,3.20
2023-04-23T12:45:46.277Z,3.42
2023-04-23T12:48:13.808Z,3.08
2023-04-23T12:50:41.319Z,3.35
2023-04-23T12:53:08.412Z,3.35
2023-04-23T12:55:35.374Z,3.17
2023-04-23T12:58:02.305Z,3.00
2023-04-23T13:00:29.344Z,2.87
2023-04-23T13:02:57.038Z,2.90
2023-04-23T13:05:24.382Z,2.85
2023-04-23T13:07:51.452Z,2.78
2023-04-23T13:10:18.404Z,3.20
2023-04-23T13:12:45.579Z,3.20
2023-04-23T13:15:15.440Z,3.12
2023-04-23T13:17:42.464Z,2.90
2023-04-23T13:20:09.797Z,2.85
2023-04-23T13:22:36.721Z,3.15
2023-04-23T13:25:04.406Z,2.60
2023-04-23T13:27:31.333Z,2.95
2023-04-23T13:29:58.978Z,3.30
2023-04-23T13:32:27.596Z,2.95
2023-04-23T13:34:54.602Z,2.80
2023-04-23T13:37:21.570Z,3.45
2023-04-23T13:39:49.150Z,3.33
2023-04-23T13:42:16.217Z,2.97
2023-04-23T13:44:43.121Z,2.95
2023-04-23T13:47:10.030Z,2.97
2023-04-23T13:49:37.078Z,2.40
2023-04-23T13:52:07.149Z,3.10
2023-04-23T13:54:35.911Z,3.03
2023-04-23T13:57:03.312Z,2.97
2023-04-23T13:59:30.322Z,3.33
2023-04-23T14:01:57.232Z,3.70
2023-04-23T14:04:24.529Z,3.60
2023-04-23T14:06:51.598Z,3.70
2023-04-23T14:09:19.220Z,2.90
2023-04-23T14:11:46.220Z,2.80
2023-04-23T14:14:13.210Z,3.28
2023-04-23T14:16:40.088Z,3.62
2023-04-23T14:19:07.257Z,3.55
2023-04-23T14:21:36.407Z,2.97
2023-04-23T14:24:10.161Z,3.12
2023-04-23T14:26:47.856Z,2.85
2023-04-23T14:29:38.905Z,3.33
2023-04-23T14:32:06.711Z,2.90
2023-04-23T14:34:36.830Z,3.12
2023-04-23T14:37:04.223Z,4.18
2023-04-23T14:39:31.739Z,3.12
2023-04-23T14:41:58.685Z,3.12
2023-04-23T14:44:27.130Z,3.60
2023-04-23T14:46:54.169Z,4.05
2023-04-23T14:49:21.800Z,3.65
2023-04-23T14:51:55.995Z,4.28
2023-04-23T14:54:23.102Z,3.15
2023-04-23T14:56:51.256Z,3.08
2023-04-23T14:59:18.156Z,2.97
2023-04-23T15:01:45.396Z,3.53
2023-04-23T15:04:12.527Z,3.30
2023-04-23T15:06:40.985Z,3.50
2023-04-23T15:09:07.975Z,2.75
2023-04-23T15:11:35.137Z,3.37
2023-04-23T15:14:26.196Z,3.35
2023-04-23T15:16:53.226Z,3.40
2023-04-23T15:19:20.274Z,3.90
2023-04-23T15:21:48.340Z,3.50
2023-04-23T15:24:16.460Z,3.60
2023-04-23T15:26:44.368Z,3.10
2023-04-23T15:29:11.679Z,3.53
2023-04-23T15:31:38.966Z,3.00
2023-04-23T15:34:09.445Z,3.33
2023-04-23T15:36:38.116Z,3.40
2023-04-23T15:39:05.342Z,3.35
2023-04-23T15:41:32.323Z,3.45
2023-04-23T15:44:00.561Z,3.75
2023-04-23T15:46:27.478Z,3.53
2023-04-23T15:48:54.399Z,3.40
2023-04-23T15:51:21.455Z,3.00
2023-04-23T15:53:48.394Z,3.83
2023-04-23T15:56:15.411Z,3.10
2023-04-23T15:58:42.338Z,3.67
2023-04-23T16:01:10.263Z,3.15
2023-04-23T16:03:37.917Z,4.05
2023-04-23T16:06:05.367Z,3.65
2023-04-23T16:08:32.958Z,3.67
2023-04-23T16:10:59.995Z,2.92
2023-04-23T16:13:29.103Z,3.17
2023-04-23T16:15:56.091Z,3.87
2023-04-23T16:18:23.059Z,3.25
2023-04-23T16:20:50.170Z,3.90
2023-04-23T16:23:17.156Z,3.95
2023-04-23T16:25:44.941Z,4.60
2023-04-23T16:28:13.963Z,4.60
2023-04-23T16:30:41.081Z,4.85
2023-04-23T16:33:09.753Z,4.70
2023-04-23T16:35:36.921Z,4.37
2023-04-23T16:38:03.870Z,4.65
2023-04-23T16:40:30.833Z,6.10
2023-04-23T16:42:57.799Z,6.10
2023-04-23T16:45:24.755Z,5.18
2023-04-23T16:47:51.767Z,4.30
2023-04-23T16:50:18.908Z,4.35
2023-04-23T16:52:45.895Z,4.32
2023-04-23T16:55:12.851Z,4.35
2023-04-23T16:57:39.836Z,3.87
2023-04-23T17:00:08.131Z,3.95
2023-04-23T17:02:35.559Z,5.03
2023-04-23T17:05:02.601Z,3.55
2023-04-23T17:07:29.713Z,3.78
2023-04-23T17:09:57.023Z,3.42
2023-04-23T17:12:23.945Z,3.42
2023-04-23T17:14:51.037Z,3.75
2023-04-23T17:17:18.008Z,4.22
2023-04-23T17:19:45.987Z,3.20
2023-04-23T17:22:12.972Z,3.28
2023-04-23T17:24:40.611Z,3.17
2023-04-23T17:27:07.959Z,3.30
2023-04-23T17:29:34.876Z,3.40
2023-04-23T17:32:03.063Z,4.20
2023-04-23T17:34:30.217Z,3.55
2023-04-23T17:36:57.229Z,3.97
2023-04-23T17:39:25.740Z,4.12
2023-04-23T17:41:52.994Z,4.30
2023-04-23T17:44:19.970Z,3.70
2023-04-23T17:46:47.017Z,3.58
2023-04-23T17:49:14.004Z,4.30
2023-04-23T17:51:41.072Z,3.67
2023-04-23T17:54:08.032Z,3.92
2023-04-23T17:56:34.961Z,4.65
2023-04-23T17:59:02.160Z,3.35
2023-04-23T18:01:29.277Z,3.62
2023-04-23T18:03:56.426Z,4.32
2023-04-23T18:06:23.825Z,4.00
2023-04-23T18:08:50.857Z,4.15
2023-04-23T18:11:18.743Z,4.32
2023-04-23T18:13:45.829Z,4.32
2023-04-23T18:16:12.836Z,4.50
2023-04-23T18:18:39.766Z,5.10
2023-04-23T18:21:06.793Z,4.32
2023-04-23T18:23:36.103Z,5.15
2023-04-23T18:26:03.107Z,4.95
2023-04-23T18:28:30.061Z,4.37
2023-04-23T18:31:02.707Z,4.60
2023-04-23T18:33:42.723Z,4.90
2023-04-23T18:36:29.838Z,4.87
2023-04-23T18:38:56.920Z,3.78
2023-04-23T18:41:23.969Z,4.28
2023-04-23T18:43:50.928Z,4.20
2023-04-23T18:46:18.083Z,4.60
2023-04-23T18:49:16.250Z,3.97
2023-04-23T18:51:51.036Z,4.53
2023-04-23T18:54:18.034Z,4.75
2023-04-23T18:56:47.954Z,4.55
2023-04-23T18:59:15.219Z,4.68
2023-04-23T19:01:43.547Z,5.00
2023-04-23T19:04:10.692Z,4.55
2023-04-23T19:06:38.293Z,4.80
2023-04-23T19:09:05.412Z,4.75
2023-04-23T19:11:35.330Z,4.15
2023-04-23T19:14:02.602Z,5.03
2023-04-23T19:16:29.823Z,4.22
2023-04-23T19:18:57.012Z,4.18
2023-04-23T19:21:23.984Z,4.45
2023-04-23T19:23:51.998Z,5.25
2023-04-23T19:26:19.209Z,4.62
2023-04-23T19:28:46.318Z,3.90
2023-04-23T19:31:13.357Z,4.55
2023-04-23T19:33:42.906Z,4.37
2023-04-23T19:36:10.430Z,4.78
2023-04-23T19:38:37.756Z,3.90
2023-04-23T19:41:04.668Z,3.60
2023-04-23T19:43:31.634Z,4.05
2023-04-23T19:45:58.784Z,3.83
2023-04-23T19:48:25.853Z,4.97
2023-04-23T19:50:52.867Z,4.70
2023-04-23T19:53:19.855Z,4.78
2023-04-23T19:55:46.754Z,5.22
2023-04-23T19:58:13.680Z,5.30
2023-04-23T20:00:41.750Z,4.80
2023-04-23T20:03:09.253Z,5.00
2023-04-23T20:05:36.352Z,5.22
2023-04-23T20:08:07.125Z,4.87
2023-04-23T20:10:34.119Z,5.50
2023-04-23T20:13:01.222Z,4.72
2023-04-23T20:15:28.628Z,5.03
2023-04-23T20:17:55.753Z,4.93
2023-04-23T20:20:22.970Z,4.90
2023-04-23T20:22:50.691Z,5.57
2023-04-23T20:25:18.119Z,4.82
2023-04-23T20:27:45.787Z,5.10
2023-04-23T20:30:14.223Z,5.18
2023-04-23T20:32:41.820Z,4.80
2023-04-23T20:35:09.736Z,5.50
2023-04-23T20:37:36.674Z,5.18
2023-04-23T20:40:03.838Z,4.87
2023-04-23T20:42:30.817Z,5.30
2023-04-23T20:44:57.962Z,4.95
2023-04-23T20:47:25.098Z,5.12
2023-04-23T20:49:52.145Z,5.10
2023-04-23T20:52:19.101Z,5.12
2023-04-23T20:54:45.970Z,4.82
2023-04-23T20:57:12.975Z,4.80
2023-04-23T20:59:40.083Z,4.22
2023-04-23T21:02:08.765Z,4.78
2023-04-23T21:04:35.973Z,5.05
2023-04-23T21:07:03.161Z,3.90
2023-04-23T21:09:30.077Z,5.10
2023-04-23T21:11:57.501Z,6.05
2023-04-23T21:14:24.409Z,5.32
2023-04-23T21:16:51.389Z,4.85
2023-04-23T21:19:18.349Z,5.82
2023-04-23T21:21:45.537Z,5.50
2023-04-23T21:24:12.466Z,5.30
2023-04-23T21:26:39.528Z,6.07
2023-04-23T21:29:06.459Z,6.10
2023-04-23T21:31:36.472Z,6.32
2023-04-23T21:34:03.431Z,5.95
2023-04-23T21:36:30.309Z,5.85
2023-04-23T21:38:57.294Z,5.82
2023-04-23T21:41:24.769Z,7.20
2023-04-23T21:43:51.759Z,6.55
2023-04-23T21:46:18.952Z,6.90
2023-04-23T21:48:49.636Z,6.30
2023-04-23T21:51:16.501Z,5.72
2023-04-23T21:53:43.392Z,5.20
2023-04-23T21:56:10.405Z,4.62
2023-04-23T21:58:37.424Z,4.70
2023-04-23T22:01:04.439Z,4.90
2023-04-23T22:03:37.805Z,5.28
2023-04-23T22:06:06.128Z,4.72
2023-04-23T22:08:33.792Z,4.57
2023-04-23T22:11:00.856Z,4.75
2023-04-23T22:13:27.772Z,5.60
2023-04-23T22:15:57.533Z,4.95
2023-04-23T22:18:24.696Z,5.25
2023-04-23T22:20:53.168Z,4.75
2023-04-23T22:23:20.128Z,5.22
2023-04-23T22:25:47.538Z,4.47
2023-04-23T22:28:14.731Z,4.65
2023-04-23T22:30:41.685Z,4.85
2023-04-23T22:33:08.661Z,5.22
2023-04-23T22:35:36.450Z,4.40
2023-04-23T22:38:03.446Z,4.28
2023-04-23T22:40:30.429Z,4.90
2023-04-23T22:42:57.336Z,4.12
2023-04-23T22:45:24.254Z,4.87
2023-04-23T22:47:51.289Z,5.60
2023-04-23T22:50:18.262Z,5.43
2023-04-23T22:52:45.156Z,4.70
2023-04-23T22:55:12.099Z,5.05
2023-04-23T22:57:39.014Z,4.37
2023-04-23T23:00:07.859Z,4.20
2023-04-23T23:02:34.944Z,4.07
2023-04-23T23:05:02.276Z,3.87
2023-04-23T23:07:29.183Z,4.57
2023-04-23T23:09:56.722Z,4.95
2023-04-23T23:12:23.645Z,4.80
2023-04-23T23:14:50.587Z,4.60
2023-04-23T23:17:17.559Z,4.60
2023-04-23T23:19:44.833Z,4.75
2023-04-23T23:22:12.218Z,4.80
2023-04-23T23:24:39.164Z,5.20
2023-04-23T23:27:06.140Z,5.53
2023-04-23T23:29:33.048Z,4.53
2023-04-23T23:32:00.149Z,4.37
2023-04-23T23:34:27.032Z,5.05
2023-04-23T23:36:53.989Z,5.10
2023-04-23T23:39:20.948Z,4.50
2023-04-23T23:41:47.931Z,4.20
2023-04-23T23:44:14.909Z,4.22
2023-04-23T23:46:42.078Z,4.43
2023-04-23T23:49:09.246Z,5.22
2023-04-23T23:51:36.287Z,4.78
2023-04-23T23:54:03.296Z,5.00
2023-04-23T23:56:30.209Z,5.20
2023-04-23T23:58:57.168Z,5.65
